This is the latest recevied weather packets stored in our database for station/object G6LTT-13. If no packets are shown the sender has not sent any weather packets the latest 10 day(s).
| Time | Temp. | Humidity | Pressure | Rain* | Wind** | Luminosity | Snow |
|---|---|---|---|---|---|---|---|
| 1777845880 | 15° C | 69% | 1039.1 hPa | 0 mm | - | - | - |
| 1777844080 | 15° C | 70% | 1039.1 hPa | 0 mm | - | - | - |
| 1777842280 | 15° C | 71% | 1038.7 hPa | 0 mm | - | - | - |
| 1777840480 | 15.56° C | 69% | 1038.4 hPa | 0 mm | - | - | - |
| 1777838680 | 15.56° C | 66% | 1038.1 hPa | 0 mm | - | - | - |
| 1777836880 | 16.11° C | 64% | 1038 hPa | 0 mm | - | - | - |
| 1777835080 | 16.11° C | 66% | 1037.7 hPa | 0 mm | - | - | - |
| 1777833280 | 17.22° C | 60% | 1037.3 hPa | 0 mm | - | - | - |
| 1777831480 | 18.33° C | 55% | 1037.2 hPa | 0 mm | - | - | - |
| 1777829680 | 17.78° C | 57% | 1037 hPa | 0 mm | - | - | - |
| 1777827880 | 17.78° C | 57% | 1037.3 hPa | 0 mm | - | - | - |
| 1777826080 | 18.33° C | 56% | 1037.2 hPa | 0 mm | - | - | - |
| 1777824280 | 18.33° C | 56% | 1036.9 hPa | 0 mm | - | - | - |
| 1777822480 | 18.33° C | 56% | 1037.2 hPa | 0 mm | - | - | - |
| 1777820680 | 17.78° C | 59% | 1037.5 hPa | 0 mm | - | - | - |
| 1777818880 | 18.33° C | 57% | 1037.5 hPa | 0 mm | - | - | - |
| 1777817080 | 17.78° C | 58% | 1037.5 hPa | 0 mm | - | - | - |
| 1777815280 | 18.33° C | 57% | 1037.7 hPa | 0 mm | - | - | - |
| 1777813480 | 18.33° C | 56% | 1037.6 hPa | 0 mm | - | - | - |
| 1777811680 | 16.67° C | 60% | 1037.7 hPa | 0 mm | - | - | - |
| 1777809880 | 17.22° C | 61% | 1037.8 hPa | 0 mm | - | - | - |
| 1777808080 | 17.78° C | 61% | 1037.8 hPa | 0 mm | - | - | - |
| 1777806280 | 16.67° C | 65% | 1037.8 hPa | 0 mm | - | - | - |
| 1777804480 | 16.11° C | 66% | 1038 hPa | 0 mm | - | - | - |
| 1777802680 | 15° C | 70% | 1038 hPa | 0 mm | - | - | - |
* Rain latest hour (hover to see other rain measurements)
** Current wind speed in m/s (hover to see current wind gust speed)